CYVR/YVR METAR and TAF weather

Enter ICAO airport designator
Station Type Date Time Source
CYVR METAR 2022/12/04 12:00 UTC NOAA

CYVR 041200Z 09004KT 15SM SKC M04/M06 A3009 RMK SLP192


Station Type Date Time Source
CYVR Decoded METAR 2022/12/04 12:00 UTC NOAA

Vancouver International Air-Port, B. C., Canada (CYVR) 49-11N 123-10W 2M
Dec 04, 2022 - 07:00 AM EST / 2022.12.04 1200 UTC
Wind: from the E (090 degrees) at 5 MPH (4 KT):0
Visibility: 15 mile(s):0
Sky conditions: clear
Temperature: 24 F (-4 C)
Windchill: 17 F (-8 C):1
Dew Point: 21 F (-6 C)
Relative Humidity: 85%
Pressure (altimeter): 30.09 in. Hg (1018 hPa)
ob: CYVR 041200Z 09004KT 15SM SKC M04/M06 A3009 RMK SLP192
cycle: 12

Station Type Date Time Source
CYVR TAF 2022/12/04 12:42 UTC NOAA

TAF CYVR 041140Z 0412/0518 10004KT P6SM FEW030 FEW070 PROB30 0412/0416 1SM BR
RMK NXT FCST BY 041500Z

Example: see airport list